Time;durP1;ratioP1;P1;durP2;ratioP2;P2;SDS_P1;SDS_P2;PMS_P1;PMS_P2;Temp;Humidity;BMP_temperature;BMP_pressure;BME280_temperature;BME280_humidity;BME280_pressure;Samples;Min_cycle;Max_cycle;Signal;HPM_P1;HPM_P2
2023/03/23 04:59:27;;;;;;;18.55;11.00;;;;;;;7.75;74.17;100433.94;5606282;31;81432;-55
2023/03/23 05:02:30;;;;;;;15.35;10.35;;;;;;;7.75;74.17;100433.94;5582196;32;34162;-56
2023/03/23 05:05:34;;;;;;;18.55;10.82;;;;;;;7.28;83.24;100437.37;5583692;31;33311;-56
2023/03/23 05:08:38;;;;;;;18.45;12.37;;;;;;;7.17;74.63;100441.06;5583701;31;33277;-56
2023/03/23 05:11:40;;;;;;;18.83;11.48;;;;;;;7.19;80.92;100442.41;5583818;31;33745;-56
2023/03/23 05:14:42;;;;;;;17.52;12.07;;;;;;;7.22;76.72;100438.44;5583768;31;33209;-56
2023/03/23 05:17:43;;;;;;;17.40;12.35;;;;;;;7.28;79.93;100440.06;5583520;31;33419;-56
2023/03/23 05:20:46;;;;;;;18.60;11.43;;;;;;;7.23;75.28;100450.69;5582935;31;34425;-56
2023/03/23 05:23:54;;;;;;;20.15;11.80;;;;;;;7.45;75.15;100440.72;5583484;31;34363;-56
2023/03/23 05:26:56;;;;;;;18.83;11.52;;;;;;;7.58;87.42;100449.31;5571540;31;33140;-56
2023/03/23 05:29:58;;;;;;;16.52;11.00;;;;;;;7.48;75.97;100450.87;5563949;32;33432;-56
2023/03/23 05:32:59;;;;;;;20.95;12.50;;;;;;;7.52;89.30;100449.28;5563914;32;33710;-56
2023/03/23 05:36:04;;;;;;;18.52;11.20;;;;;;;7.68;75.36;100444.84;5563927;32;34188;-56
2023/03/23 05:39:06;;;;;;;25.75;11.60;;;;;;;7.92;73.36;100445.22;5563699;32;33112;-56
2023/03/23 05:42:10;;;;;;;18.85;11.82;;;;;;;7.83;77.26;100444.09;5563868;32;34438;-56
2023/03/23 05:45:13;;;;;;;21.00;11.63;;;;;;;7.96;79.52;100450.84;5563643;32;34455;-56
2023/03/23 05:48:14;;;;;;;18.75;11.30;;;;;;;8.16;72.86;100429.56;5563769;32;34602;-56
2023/03/23 05:51:16;;;;;;;22.30;12.27;;;;;;;8.50;70.66;100426.44;5564884;32;34348;-56
2023/03/23 05:54:18;;;;;;;18.83;12.43;;;;;;;8.62;70.74;100429.69;5571166;32;33552;-56
2023/03/23 05:57:23;;;;;;;20.83;12.75;;;;;;;8.73;70.06;100433.16;5571426;31;33397;-56
2023/03/23 06:00:24;;;;;;;18.65;12.73;;;;;;;8.96;68.67;100425.69;5574471;32;33376;-56
2023/03/23 06:03:26;;;;;;;23.00;13.80;;;;;;;9.15;67.99;100430.22;5582967;31;34539;-56
2023/03/23 06:06:30;;;;;;;23.05;15.35;;;;;;;9.17;67.58;100427.25;5582623;31;33355;-56
2023/03/23 06:09:33;;;;;;;21.27;15.10;;;;;;;9.41;67.52;100436.34;5574996;31;32938;-56
2023/03/23 06:12:38;;;;;;;28.05;16.35;;;;;;;9.41;67.33;100433.66;5569877;31;33292;-57
2023/03/23 06:15:40;;;;;;;31.83;16.70;;;;;;;9.36;67.39;100438.22;5569708;31;33356;-56
2023/03/23 06:18:42;;;;;;;26.83;16.23;;;;;;;9.56;67.16;100434.69;5569687;31;34639;-56
2023/03/23 06:21:45;;;;;;;34.13;17.70;;;;;;;9.59;68.28;100432.28;5569998;31;33568;-56
2023/03/23 06:24:47;;;;;;;27.45;17.15;;;;;;;9.90;75.20;100429.50;5569398;32;33381;-56
2023/03/23 06:27:48;;;;;;;28.50;17.85;;;;;;;10.07;69.86;100429.97;5569089;31;34471;-57
2023/03/23 06:30:50;;;;;;;25.15;14.93;;;;;;;10.16;67.59;100432.06;5568959;32;33673;-56
2023/03/23 06:33:52;;;;;;;26.98;15.02;;;;;;;10.45;82.39;100422.28;5569758;32;33363;-56
2023/03/23 06:36:55;;;;;;;21.67;16.05;;;;;;;10.86;86.99;100426.53;5568857;31;33496;-56
2023/03/23 06:39:58;;;;;;;23.73;15.90;;;;;;;10.98;74.80;100421.59;5569032;31;33456;-56
2023/03/23 06:42:59;;;;;;;21.58;16.02;;;;;;;10.93;64.92;100424.34;5567743;31;34757;-56
2023/03/23 06:46:02;;;;;;;25.27;17.08;;;;;;;11.04;77.55;100432.00;5568908;31;31759;-56
2023/03/23 06:49:05;;;;;;;22.85;16.85;;;;;;;11.09;64.88;100439.22;5569224;31;33323;-57
2023/03/23 06:52:11;;;;;;;27.23;17.00;;;;;;;10.99;63.67;100431.25;5569305;31;34392;-56
2023/03/23 06:55:13;;;;;;;29.30;15.52;;;;;;;11.16;63.36;100430.84;5568444;32;33382;-56
2023/03/23 06:58:15;;;;;;;27.92;15.95;;;;;;;11.10;63.92;100426.63;5568889;32;33468;-57
2023/03/23 07:01:17;;;;;;;25.50;16.70;;;;;;;11.22;63.68;100429.72;5566065;32;33808;-57
2023/03/23 07:04:19;;;;;;;23.75;15.93;;;;;;;11.41;63.76;100429.78;5550686;32;33722;-56
2023/03/23 07:07:21;;;;;;;23.48;16.40;;;;;;;11.55;67.01;100433.41;5568855;31;33525;-56
2023/03/23 07:10:23;;;;;;;29.12;17.27;;;;;;;11.58;61.37;100432.03;5567755;31;33208;-56
2023/03/23 07:13:26;;;;;;;26.90;16.17;;;;;;;11.55;61.46;100437.97;5568009;32;33766;-56
2023/03/23 07:16:28;;;;;;;26.02;16.80;;;;;;;11.71;61.38;100431.34;5564927;32;32044;-56
2023/03/23 07:19:30;;;;;;;24.58;16.58;;;;;;;11.80;61.65;100436.91;5568080;32;34524;-57
2023/03/23 07:22:33;;;;;;;21.65;15.85;;;;;;;11.89;62.34;100441.38;5565863;32;32975;-57
2023/03/23 07:25:53;;;;;;;24.80;16.42;;;;;;;12.21;67.07;100448.75;5568485;31;34972;-56
2023/03/23 07:28:55;;;;;;;22.95;16.10;;;;;;;12.40;63.41;100447.97;5568525;31;34244;-56
2023/03/23 07:31:56;;;;;;;29.52;18.55;;;;;;;12.54;73.35;100448.84;5568750;31;33887;-56
2023/03/23 07:34:58;;;;;;;22.67;18.23;;;;;;;12.50;59.66;100444.34;5568302;32;33615;-56
2023/03/23 07:38:00;;;;;;;22.85;17.30;;;;;;;12.52;60.17;100451.03;5566314;31;33456;-57
2023/03/23 07:41:02;;;;;;;35.15;17.42;;;;;;;12.59;61.34;100448.78;5562813;32;33723;-57
2023/03/23 07:44:06;;;;;;;26.00;18.20;;;;;;;12.66;68.32;100454.59;5565853;31;31806;-57
2023/03/23 07:47:08;;;;;;;24.12;17.17;;;;;;;12.70;61.68;100457.50;5568493;31;32011;-57
2023/03/23 07:50:11;;;;;;;27.17;18.40;;;;;;;12.93;75.30;100463.84;5568032;31;33429;-57
2023/03/23 07:53:13;;;;;;;28.08;17.02;;;;;;;12.82;58.40;100462.44;5568198;31;34237;-56
2023/03/23 07:56:18;;;;;;;23.48;16.90;;;;;;;12.88;64.91;100458.53;5562090;31;33147;-57
2023/03/23 07:59:21;;;;;;;27.17;18.05;;;;;;;13.27;69.13;100463.59;5563571;31;33444;-56
2023/03/23 08:02:24;;;;;;;27.15;17.87;;;;;;;13.32;64.95;100468.88;5565674;32;33732;-57
2023/03/23 08:05:27;;;;;;;27.27;19.58;;;;;;;13.34;59.42;100460.50;5567552;31;33309;-57
2023/03/23 08:08:32;;;;;;;26.17;17.37;;;;;;;13.32;58.23;100466.19;5564780;31;33432;-56
2023/03/23 08:11:35;;;;;;;30.20;18.55;;;;;;;13.40;69.55;100465.50;5556614;32;31828;-56
2023/03/23 08:14:36;;;;;;;25.62;16.92;;;;;;;13.54;58.39;100462.84;5548967;32;32361;-56
2023/03/23 08:17:40;;;;;;;24.75;15.50;;;;;;;13.70;73.80;100465.25;5559264;31;33301;-57
2023/03/23 08:20:42;;;;;;;19.67;15.90;;;;;;;13.88;71.56;100467.06;5557646;32;33277;-56
2023/03/23 08:23:45;;;;;;;27.65;17.45;;;;;;;14.04;68.80;100464.84;5547708;32;33355;-56
2023/03/23 08:26:46;;;;;;;29.55;16.15;;;;;;;14.22;63.42;100468.50;5551849;32;32792;-56
2023/03/23 08:29:48;;;;;;;27.65;17.62;;;;;;;14.26;70.33;100473.00;5550322;31;34798;-57
2023/03/23 08:32:51;;;;;;;25.90;16.85;;;;;;;14.17;55.95;100471.31;5558773;32;33475;-56
2023/03/23 08:35:57;;;;;;;23.60;17.05;;;;;;;14.15;54.18;100465.44;5551284;32;34392;-57
2023/03/23 08:38:59;;;;;;;21.50;15.25;;;;;;;14.03;54.06;100468.63;5549534;32;33615;-57
2023/03/23 08:42:01;;;;;;;23.05;16.50;;;;;;;14.14;56.75;100472.72;5560339;31;33243;-57
2023/03/23 08:45:07;;;;;;;22.85;15.48;;;;;;;14.20;54.59;100466.09;5550581;32;33636;-56
2023/03/23 08:48:10;;;;;;;18.05;14.45;;;;;;;14.26;58.69;100473.00;5547183;32;33442;-56
2023/03/23 08:51:12;;;;;;;28.12;17.08;;;;;;;14.54;71.91;100470.28;5552866;32;33097;-57
2023/03/23 08:54:14;;;;;;;19.45;13.68;;;;;;;14.55;56.96;100469.19;5563316;32;34195;-56
2023/03/23 08:57:15;;;;;;;19.80;14.70;;;;;;;14.93;69.00;100474.22;5565971;31;32384;-56
2023/03/23 09:00:21;;;;;;;19.37;14.30;;;;;;;14.92;61.97;100465.34;5549153;32;33595;-57
2023/03/23 09:03:23;;;;;;;20.90;13.90;;;;;;;15.10;66.12;100468.97;5548171;32;34086;-57
2023/03/23 09:06:27;;;;;;;19.10;13.52;;;;;;;15.21;64.83;100474.91;5564958;32;34353;-57
2023/03/23 09:09:28;;;;;;;25.52;15.50;;;;;;;15.20;65.11;100457.13;5565931;32;33616;-57
2023/03/23 09:12:30;;;;;;;27.98;15.13;;;;;;;15.27;57.08;100466.34;5566373;32;34412;-56
2023/03/23 09:15:32;;;;;;;21.90;15.38;;;;;;;15.31;59.93;100455.72;5567248;32;33493;-57
2023/03/23 09:18:35;;;;;;;19.50;14.13;;;;;;;15.40;56.40;100453.09;5566151;31;31852;-57
2023/03/23 09:21:37;;;;;;;20.37;14.40;;;;;;;15.38;58.07;100453.38;5564879;31;33350;-57
2023/03/23 09:24:38;;;;;;;20.98;14.00;;;;;;;15.47;53.90;100454.22;5565561;32;33578;-57
2023/03/23 09:27:40;;;;;;;24.87;14.85;;;;;;;15.55;52.60;100452.66;5565755;32;33692;-56
2023/03/23 09:30:43;;;;;;;21.02;14.00;;;;;;;15.62;55.24;100450.31;5564373;32;34349;-57
2023/03/23 09:33:46;;;;;;;21.10;12.93;;;;;;;15.63;52.81;100445.69;5565215;32;33756;-57
2023/03/23 09:36:49;;;;;;;18.20;12.50;;;;;;;15.60;53.99;100447.13;5562691;32;33862;-57
2023/03/23 09:39:50;;;;;;;18.48;13.10;;;;;;;15.87;61.54;100443.44;5554516;32;33669;-57
2023/03/23 09:43:13;;;;;;;18.17;12.50;;;;;;;15.94;53.97;100443.78;5560872;32;34192;-57
2023/03/23 09:46:43;;;;;;;22.23;12.95;;;;;;;16.24;58.64;100440.50;5567344;32;32442;-57
2023/03/23 09:49:51;;;;;;;21.02;12.10;;;;;;;16.23;53.12;100434.28;5544052;31;33604;-58
2023/03/23 09:53:05;;;;;;;28.08;11.40;;;;;;;16.33;51.89;100427.78;5564703;32;33172;-57
2023/03/23 09:56:15;;;;;;;18.77;11.38;;;;;;;16.49;55.17;100430.78;5567189;32;33602;-57
2023/03/23 09:59:21;;;;;;;21.73;11.20;;;;;;;16.50;55.78;100421.56;5550249;32;33679;-57
2023/03/23 10:02:38;;;;;;;18.27;11.77;;;;;;;16.67;55.18;100421.56;5564012;32;34263;-57
2023/03/23 10:05:47;;;;;;;18.08;11.25;;;;;;;16.90;52.06;100414.06;5562806;32;33751;-56
2023/03/23 10:08:55;;;;;;;20.77;12.13;;;;;;;16.88;51.44;100417.09;5563496;32;34279;-56
2023/03/23 10:12:09;;;;;;;16.62;11.35;;;;;;;16.88;50.31;100416.28;5566722;32;33979;-56
2023/03/23 10:15:16;;;;;;;18.33;10.30;;;;;;;16.84;48.36;100405.31;5566483;32;34531;-58
2023/03/23 10:18:26;;;;;;;14.75;10.52;;;;;;;16.93;48.61;100404.50;5564028;32;33698;-56
2023/03/23 10:21:30;;;;;;;13.45;9.88;;;;;;;16.93;48.62;100394.47;5560702;32;33837;-57
2023/03/23 10:24:40;;;;;;;20.60;9.48;;;;;;;16.94;47.66;100400.69;5564587;32;33833;-57
2023/03/23 10:27:48;;;;;;;18.67;9.50;;;;;;;17.01;51.19;100392.84;5560905;32;33959;-56
2023/03/23 10:30:56;;;;;;;15.50;9.45;;;;;;;17.16;50.75;100383.44;5568604;32;33203;-56
2023/03/23 10:34:04;;;;;;;12.63;9.23;;;;;;;17.24;50.46;100375.25;5562585;32;33748;-56
2023/03/23 10:37:23;;;;;;;18.62;9.07;;;;;;;17.31;50.34;100364.69;5563649;32;33774;-57
2023/03/23 10:40:29;;;;;;;11.32;8.98;;;;;;;17.35;50.08;100368.38;5550427;32;33842;-56
2023/03/23 10:43:32;;;;;;;14.87;8.48;;;;;;;17.30;47.45;100368.53;5566014;32;33718;-57
2023/03/23 10:46:39;;;;;;;19.15;8.80;;;;;;;17.46;52.07;100373.41;5568516;32;33652;-57
2023/03/23 10:49:49;;;;;;;11.80;8.45;;;;;;;17.50;49.14;100371.63;5568566;32;33733;-57
2023/03/23 10:52:53;;;;;;;12.55;7.47;;;;;;;17.49;46.75;100353.78;5566666;32;34364;-57
2023/03/23 10:55:55;;;;;;;11.32;7.57;;;;;;;17.47;46.47;100348.69;5568674;32;33756;-57
2023/03/23 10:58:56;;;;;;;11.20;6.00;;;;;;;17.49;45.60;100356.50;5566436;32;35131;-56
2023/03/23 11:02:03;;;;;;;6.82;5.03;;;;;;;17.53;44.69;100350.09;5567663;32;33807;-56
2023/03/23 11:05:22;;;;;;;6.85;4.80;;;;;;;17.56;45.57;100354.88;5563378;32;33963;-57
2023/03/23 11:08:30;;;;;;;10.27;5.00;;;;;;;17.63;46.52;100365.19;5565462;32;33457;-57
2023/03/23 11:11:37;;;;;;;6.93;4.22;;;;;;;17.66;47.41;100369.97;5568798;32;33653;-57
2023/03/23 11:14:42;;;;;;;7.65;4.35;;;;;;;17.70;45.15;100348.41;5567760;32;34325;-57
2023/03/23 11:17:43;;;;;;;11.15;5.35;;;;;;;17.77;46.86;100349.50;5559193;32;33913;-56
2023/03/23 11:20:48;;;;;;;8.65;5.22;;;;;;;17.89;45.74;100346.06;5569070;32;33771;-57
2023/03/23 11:23:58;;;;;;;6.43;4.53;;;;;;;17.90;44.27;100338.72;5564925;32;32259;-57
2023/03/23 11:27:02;;;;;;;7.15;4.40;;;;;;;17.87;44.20;100332.03;5563738;32;34497;-57
2023/03/23 11:30:21;;;;;;;8.93;5.30;;;;;;;17.98;45.27;100327.00;5563505;32;34451;-57
2023/03/23 11:33:25;;;;;;;9.65;5.80;;;;;;;18.05;43.50;100321.87;5566962;32;34052;-57
2023/03/23 11:36:36;;;;;;;12.48;5.65;;;;;;;18.08;42.57;100329.34;5567466;32;33697;-57
2023/03/23 11:39:53;;;;;;;7.90;5.62;;;;;;;18.13;44.64;100331.84;5567656;32;33683;-58
2023/03/23 11:43:00;;;;;;;7.28;4.60;;;;;;;18.11;45.75;100327.88;5568377;32;33960;-57
2023/03/23 11:46:18;;;;;;;7.82;5.35;;;;;;;18.16;44.79;100333.09;5566438;32;33669;-56
2023/03/23 11:49:37;;;;;;;8.27;5.35;;;;;;;18.09;42.73;100325.50;5566924;32;33676;-57
2023/03/23 11:53:03;;;;;;;8.85;4.97;;;;;;;18.08;48.90;100332.06;5565684;32;33860;-57
2023/03/23 11:56:16;;;;;;;7.95;4.90;;;;;;;18.00;50.74;100333.69;5565186;32;34319;-57
2023/03/23 11:59:30;;;;;;;12.55;5.10;;;;;;;17.94;47.23;100320.66;5560961;32;33637;-57
2023/03/23 12:02:53;;;;;;;8.05;5.15;;;;;;;17.89;45.26;100313.53;5568155;32;34321;-57
2023/03/23 12:06:39;;;;;;;9.88;5.20;;;;;;;17.90;43.52;100317.81;5566990;32;34520;-57
2023/03/23 12:10:06;;;;;;;9.32;5.28;;;;;;;18.00;44.18;100313.94;5549255;32;33640;-57
2023/03/23 12:13:52;;;;;;;11.07;4.18;;;;;;;18.02;44.23;100315.19;5558300;32;34369;-57
2023/03/23 12:17:06;;;;;;;7.85;4.07;;;;;;;18.15;42.97;100304.41;5560137;32;33716;-56
2023/03/23 12:20:21;;;;;;;6.80;3.62;;;;;;;18.29;46.34;100292.13;5548757;32;33747;-57
2023/03/23 12:23:42;;;;;;;6.37;3.55;;;;;;;18.40;43.06;100284.34;5558687;32;33827;-57
2023/03/23 12:27:19;;;;;;;7.30;3.70;;;;;;;18.49;43.47;100270.69;5567161;32;34304;-57
2023/03/23 12:30:39;;;;;;;6.82;4.28;;;;;;;18.46;41.98;100274.87;5560384;32;33722;-57
2023/03/23 12:33:55;;;;;;;6.43;4.10;;;;;;;18.58;45.25;100267.91;5567304;32;34320;-57
2023/03/23 12:37:04;;;;;;;8.88;3.95;;;;;;;18.53;42.53;100261.53;5563732;32;33730;-57
2023/03/23 12:40:28;;;;;;;5.00;3.53;;;;;;;18.52;42.55;100257.25;5568515;32;33766;-56
2023/03/23 12:43:47;;;;;;;5.68;3.62;;;;;;;18.61;41.13;100257.16;5566304;32;33222;-57
2023/03/23 12:47:17;;;;;;;6.22;3.78;;;;;;;18.72;41.29;100254.81;5566326;32;33703;-57
2023/03/23 12:50:28;;;;;;;4.87;3.25;;;;;;;18.83;41.68;100253.25;5563756;32;34514;-57
2023/03/23 12:53:38;;;;;;;7.18;3.47;;;;;;;18.74;40.71;100247.13;5562212;32;34200;-57
2023/03/23 12:56:52;;;;;;;5.05;3.08;;;;;;;18.77;40.79;100249.97;5566563;32;34383;-57
2023/03/23 13:00:20;;;;;;;6.20;3.30;;;;;;;18.82;41.21;100248.94;5551211;32;33739;-57
2023/03/23 13:03:51;;;;;;;4.18;3.17;;;;;;;18.87;41.36;100237.84;5558959;32;33768;-57
2023/03/23 13:06:52;;;;;;;5.47;3.03;;;;;;;18.89;41.19;100243.75;5566944;32;34177;-57
2023/03/23 13:10:02;;;;;;;4.28;3.30;;;;;;;18.89;43.45;100238.31;5566463;32;31962;-54
2023/03/23 13:13:04;;;;;;;4.68;3.28;;;;;;;18.97;42.34;100242.03;5562382;32;34426;-54
2023/03/23 13:16:10;;;;;;;5.07;3.05;;;;;;;19.01;43.03;100240.25;5566272;32;34502;-55
2023/03/23 13:19:24;;;;;;;5.75;3.37;;;;;;;18.98;41.23;100235.50;5565038;32;33870;-54
2023/03/23 13:22:39;;;;;;;5.32;3.45;;;;;;;18.98;43.01;100241.72;5567360;32;33607;-56
2023/03/23 13:25:49;;;;;;;9.57;3.33;;;;;;;19.00;40.04;100228.56;5564494;32;33792;-54
2023/03/23 13:28:53;;;;;;;5.47;3.28;;;;;;;19.02;41.44;100231.75;5569650;32;34457;-54
2023/03/23 13:32:18;;;;;;;7.15;3.12;;;;;;;19.06;41.95;100229.12;5554439;32;34430;-54
2023/03/23 13:35:21;;;;;;;5.20;3.80;;;;;;;19.11;40.18;100230.84;5558258;32;33180;-54
2023/03/23 13:38:29;;;;;;;7.53;3.50;;;;;;;19.12;40.78;100230.50;5563034;32;33798;-55
2023/03/23 13:41:31;;;;;;;7.65;3.75;;;;;;;19.10;40.78;100224.59;5559012;32;34394;-54
2023/03/23 13:45:17;;;;;;;6.72;3.42;;;;;;;19.13;39.30;100229.34;5566475;32;33465;-55
2023/03/23 13:48:23;;;;;;;5.12;3.92;;;;;;;19.13;40.60;100223.91;5557146;32;33599;-55
2023/03/23 13:51:31;;;;;;;9.48;3.62;;;;;;;19.11;39.44;100214.53;5569569;32;33803;-54
2023/03/23 13:54:42;;;;;;;7.85;3.55;;;;;;;19.09;40.47;100209.44;5562778;32;34431;-54
2023/03/23 13:57:56;;;;;;;7.43;3.83;;;;;;;19.14;40.39;100202.97;5570119;32;33643;-55
2023/03/23 14:01:08;;;;;;;8.05;3.67;;;;;;;19.10;39.48;100202.06;5566139;32;33634;-54
2023/03/23 14:04:18;;;;;;;5.75;3.70;;;;;;;19.14;39.99;100209.22;5562131;32;33707;-54
2023/03/23 14:07:19;;;;;;;5.60;3.20;;;;;;;19.19;41.68;100213.59;5556764;32;33654;-54
2023/03/23 14:10:22;;;;;;;6.32;3.40;;;;;;;19.19;40.14;100200.03;5549673;32;33731;-54
2023/03/23 14:13:31;;;;;;;5.85;3.45;;;;;;;19.30;41.09;100201.12;5560646;32;34278;-54
2023/03/23 14:16:35;;;;;;;7.45;3.53;;;;;;;19.22;40.55;100204.78;5569941;32;33734;-55
2023/03/23 14:19:39;;;;;;;9.05;3.65;;;;;;;19.15;42.60;100191.78;5569644;32;34385;-55
2023/03/23 14:22:40;;;;;;;6.47;3.90;;;;;;;19.14;43.93;100194.81;5567668;32;33763;-55
2023/03/23 14:25:42;;;;;;;9.88;3.75;;;;;;;19.07;41.16;100187.25;5568717;31;33975;-55
2023/03/23 14:28:49;;;;;;;5.47;3.40;;;;;;;19.10;43.32;100191.19;5569285;32;33646;-55
2023/03/23 14:31:55;;;;;;;13.32;4.30;;;;;;;19.09;41.00;100192.34;5567810;32;33709;-54
2023/03/23 14:34:56;;;;;;;6.65;4.03;;;;;;;19.08;44.78;100188.84;5568439;32;33142;-54
2023/03/23 14:37:58;;;;;;;4.45;3.55;;;;;;;19.02;47.79;100191.00;5566956;32;33819;-54
2023/03/23 14:41:03;;;;;;;7.80;4.20;;;;;;;18.95;41.55;100193.50;5566571;32;33748;-54
2023/03/23 14:44:08;;;;;;;10.55;4.45;;;;;;;18.93;41.71;100189.53;5567147;32;33769;-54
2023/03/23 14:47:20;;;;;;;10.90;4.00;;;;;;;19.00;42.69;100189.75;5568650;32;33571;-54
2023/03/23 14:50:36;;;;;;;7.78;4.00;;;;;;;19.00;42.00;100193.25;5564653;32;34594;-54
2023/03/23 14:53:39;;;;;;;9.63;4.53;;;;;;;19.02;46.46;100196.41;5566881;32;33620;-55
2023/03/23 14:56:40;;;;;;;6.68;4.18;;;;;;;19.01;42.58;100194.06;5564629;32;33606;-54
2023/03/23 14:59:44;;;;;;;8.48;4.12;;;;;;;18.98;43.14;100189.31;5569339;32;33718;-55
2023/03/23 15:02:49;;;;;;;10.05;4.32;;;;;;;19.02;43.57;100182.84;5568848;32;32211;-54
2023/03/23 15:06:00;;;;;;;5.28;3.95;;;;;;;19.12;44.50;100191.66;5569317;32;34738;-55
2023/03/23 15:09:09;;;;;;;10.77;4.28;;;;;;;19.08;43.13;100182.63;5569268;32;34330;-54
2023/03/23 15:12:21;;;;;;;9.40;4.60;;;;;;;19.12;45.34;100184.28;5568924;32;33582;-54
2023/03/23 15:15:31;;;;;;;5.80;3.58;;;;;;;19.13;44.72;100175.00;5569167;32;33502;-55
2023/03/23 15:18:36;;;;;;;5.57;3.28;;;;;;;19.18;42.05;100177.50;5567352;32;33669;-54
2023/03/23 15:21:49;;;;;;;5.30;3.83;;;;;;;19.17;41.77;100175.09;5569659;32;34435;-54
2023/03/23 15:24:53;;;;;;;8.60;3.62;;;;;;;19.16;44.62;100184.41;5569504;32;33666;-54
2023/03/23 15:27:57;;;;;;;8.60;4.70;;;;;;;19.10;42.13;100189.28;5569089;32;33800;-55
2023/03/23 15:31:05;;;;;;;8.35;4.40;;;;;;;19.08;43.58;100186.13;5569220;32;33817;-55
2023/03/23 15:34:14;;;;;;;6.75;3.90;;;;;;;19.11;44.66;100190.09;5569103;32;34262;-55
2023/03/23 15:37:31;;;;;;;13.10;4.40;;;;;;;19.12;43.58;100180.78;5568430;32;33578;-56
2023/03/23 15:40:35;;;;;;;5.62;3.53;;;;;;;19.06;43.96;100184.88;5568742;32;33696;-56
2023/03/23 15:43:58;;;;;;;8.98;3.85;;;;;;;18.98;41.88;100184.66;5567756;32;33729;-56
2023/03/23 15:47:14;;;;;;;5.93;3.72;;;;;;;18.96;42.79;100186.13;5569204;32;33766;-56
2023/03/23 15:50:27;;;;;;;;;;;;;;;18.93;43.26;100182.16;5569777;32;33658;-57
2023/03/23 15:53:37;;;;;;;18.45;4.37;;;;;;;18.88;42.53;100192.47;5569317;32;34685;-57
2023/03/23 15:56:39;;;;;;;9.32;3.60;;;;;;;18.92;44.04;100191.44;5568709;32;33882;-57
2023/03/23 15:59:40;;;;;;;10.48;3.90;;;;;;;18.90;44.19;100193.72;5569087;32;33751;-57
2023/03/23 16:02:46;;;;;;;8.65;3.90;;;;;;;18.78;42.64;100191.81;5569123;32;33801;-56
2023/03/23 16:05:49;;;;;;;5.95;4.03;;;;;;;18.81;42.70;100189.53;5569115;32;33683;-56
2023/03/23 16:08:55;;;;;;;6.80;3.28;;;;;;;18.80;46.80;100187.94;5568160;32;33729;-57
2023/03/23 16:11:58;;;;;;;11.77;3.97;;;;;;;18.68;43.45;100186.00;5569154;32;33610;-57
2023/03/23 16:15:00;;;;;;;7.78;3.33;;;;;;;18.70;45.61;100187.22;5569150;32;33939;-57
2023/03/23 16:18:02;;;;;;;8.32;3.95;;;;;;;18.66;47.08;100190.97;5569161;32;33693;-57
2023/03/23 16:21:05;;;;;;;5.30;3.25;;;;;;;18.60;45.48;100197.75;5568108;32;33733;-57
2023/03/23 16:24:08;;;;;;;7.93;3.55;;;;;;;18.53;43.97;100203.75;5549758;32;33620;-57
2023/03/23 16:27:11;;;;;;;6.80;3.40;;;;;;;18.48;45.98;100188.47;5565261;32;34504;-56
2023/03/23 16:30:24;;;;;;;7.97;3.53;;;;;;;18.49;49.27;100189.28;5564953;32;33707;-57
2023/03/23 16:33:26;;;;;;;7.18;3.50;;;;;;;18.40;45.57;100186.66;5569144;32;34315;-57
2023/03/23 16:36:28;;;;;;;11.18;4.55;;;;;;;18.38;48.19;100194.34;5568914;32;33774;-57
2023/03/23 16:39:31;;;;;;;6.85;3.80;;;;;;;18.31;48.06;100189.47;5568241;32;33778;-57
2023/03/23 16:42:33;;;;;;;9.02;3.70;;;;;;;18.27;46.04;100196.69;5568380;32;33752;-57
2023/03/23 16:45:40;;;;;;;10.88;4.05;;;;;;;18.23;46.43;100205.84;5568542;32;33671;-57
2023/03/23 16:48:45;;;;;;;6.75;3.55;;;;;;;18.17;45.69;100205.25;5568792;32;33704;-56
2023/03/23 16:51:47;;;;;;;10.07;4.03;;;;;;;18.12;49.05;100208.19;5568296;32;33640;-56
